sensor_id;sensor_type;location;lat;lon;timestamp;pressure;altitude;pressure_sealevel;temperature;humidity
54407;BME280;40313;50.308;30.374;2023-01-26T00:01:08;100857.41;;;-3.69;100.00
54407;BME280;40313;50.308;30.374;2023-01-26T00:03:36;100856.59;;;-3.68;100.00
54407;BME280;40313;50.308;30.374;2023-01-26T00:06:03;100843.81;;;-3.69;100.00
54407;BME280;40313;50.308;30.374;2023-01-26T04:33:57;100699.03;;;-4.27;100.00
54407;BME280;40313;50.308;30.374;2023-01-26T04:36:23;100702.50;;;-4.22;100.00
54407;BME280;40313;50.308;30.374;2023-01-26T04:38:50;100700.91;;;-4.18;100.00
54407;BME280;40313;50.308;30.374;2023-01-26T04:41:16;100695.91;;;-4.13;100.00
54407;BME280;40313;50.308;30.374;2023-01-26T04:43:43;100691.75;;;-4.10;100.00
54407;BME280;40313;50.308;30.374;2023-01-26T04:46:10;100687.56;;;-4.05;100.00
54407;BME280;40313;50.308;30.374;2023-01-26T04:48:37;100686.00;;;-4.00;100.00
54407;BME280;40313;50.308;30.374;2023-01-26T04:51:06;100677.53;;;-3.98;100.00
54407;BME280;40313;50.308;30.374;2023-01-26T04:53:33;100673.34;;;-3.95;100.00
54407;BME280;40313;50.308;30.374;2023-01-26T04:56:00;100679.22;;;-3.97;100.00
54407;BME280;40313;50.308;30.374;2023-01-26T04:58:26;100678.41;;;-3.96;100.00
54407;BME280;40313;50.308;30.374;2023-01-26T05:00:55;100667.34;;;-3.98;100.00
54407;BME280;40313;50.308;30.374;2023-01-26T05:03:22;100673.34;;;-3.95;100.00
54407;BME280;40313;50.308;30.374;2023-01-26T05:05:50;100669.16;;;-3.91;100.00
54407;BME280;40313;50.308;30.374;2023-01-26T05:08:19;100671.72;;;-3.91;100.00
54407;BME280;40313;50.308;30.374;2023-01-26T05:10:46;100660.66;;;-3.90;100.00
54407;BME280;40313;50.308;30.374;2023-01-26T05:13:13;100665.78;;;-3.90;100.00
54407;BME280;40313;50.308;30.374;2023-01-26T05:15:40;100667.56;;;-3.86;100.00
54407;BME280;40313;50.308;30.374;2023-01-26T05:18:06;100668.47;;;-3.83;100.00
54407;BME280;40313;50.308;30.374;2023-01-26T05:20:33;100665.06;;;-3.82;100.00
54407;BME280;40313;50.308;30.374;2023-01-26T05:22:59;100671.91;;;-3.80;100.00
54407;BME280;40313;50.308;30.374;2023-01-26T05:25:27;100666.00;;;-3.78;100.00
54407;BME280;40313;50.308;30.374;2023-01-26T05:27:54;100659.19;;;-3.79;100.00
54407;BME280;40313;50.308;30.374;2023-01-26T05:30:20;100654.03;;;-3.82;100.00
54407;BME280;40313;50.308;30.374;2023-01-26T05:32:47;100656.69;;;-3.76;100.00
54407;BME280;40313;50.308;30.374;2023-01-26T05:35:13;100657.53;;;-3.77;100.00
54407;BME280;40313;50.308;30.374;2023-01-26T05:37:40;100655.81;;;-3.78;100.00
54407;BME280;40313;50.308;30.374;2023-01-26T05:40:09;100662.69;;;-3.74;100.00
54407;BME280;40313;50.308;30.374;2023-01-26T05:42:37;100658.50;;;-3.70;100.00
54407;BME280;40313;50.308;30.374;2023-01-26T05:45:04;100664.50;;;-3.68;100.00
54407;BME280;40313;50.308;30.374;2023-01-26T05:47:31;100662.75;;;-3.71;100.00
54407;BME280;40313;50.308;30.374;2023-01-26T05:49:57;100661.06;;;-3.69;100.00
54407;BME280;40313;50.308;30.374;2023-01-26T05:52:24;100656.84;;;-3.68;100.00
54407;BME280;40313;50.308;30.374;2023-01-26T05:54:50;100665.38;;;-3.66;100.00
54407;BME280;40313;50.308;30.374;2023-01-26T05:57:16;100667.06;;;-3.67;100.00
54407;BME280;40313;50.308;30.374;2023-01-26T05:59:44;100660.28;;;-3.65;100.00
54407;BME280;40313;50.308;30.374;2023-01-26T06:02:11;100662.94;;;-3.61;100.00
54407;BME280;40313;50.308;30.374;2023-01-26T06:04:37;100663.78;;;-3.61;100.00
54407;BME280;40313;50.308;30.374;2023-01-26T06:07:04;100657.88;;;-3.58;100.00
54407;BME280;40313;50.308;30.374;2023-01-26T06:09:30;100661.28;;;-3.56;100.00
54407;BME280;40313;50.308;30.374;2023-01-26T06:11:57;100669.84;;;-3.54;100.00
54407;BME280;40313;50.308;30.374;2023-01-26T06:14:23;100673.25;;;-3.54;100.00
54407;BME280;40313;50.308;30.374;2023-01-26T06:16:51;100673.28;;;-3.52;100.00
54407;BME280;40313;50.308;30.374;2023-01-26T06:19:18;100676.66;;;-3.53;100.00
54407;BME280;40313;50.308;30.374;2023-01-26T06:21:45;100679.22;;;-3.52;100.00
54407;BME280;40313;50.308;30.374;2023-01-26T06:24:11;100677.59;;;-3.50;100.00
54407;BME280;40313;50.308;30.374;2023-01-26T06:26:37;100670.81;;;-3.48;100.00
54407;BME280;40313;50.308;30.374;2023-01-26T06:29:05;100674.13;;;-3.52;100.00
54407;BME280;40313;50.308;30.374;2023-01-26T06:31:34;100667.34;;;-3.51;100.00
54407;BME280;40313;50.308;30.374;2023-01-26T06:34:02;100662.22;;;-3.53;100.00
54407;BME280;40313;50.308;30.374;2023-01-26T06:36:29;100664.81;;;-3.51;100.00
54407;BME280;40313;50.308;30.374;2023-01-26T06:38:56;100671.59;;;-3.50;100.00
54407;BME280;40313;50.308;30.374;2023-01-26T06:41:22;100669.09;;;-3.49;100.00
54407;BME280;40313;50.308;30.374;2023-01-26T06:43:49;100683.53;;;-3.49;100.00
54407;BME280;40313;50.308;30.374;2023-01-26T06:46:15;100677.63;;;-3.47;100.00
54407;BME280;40313;50.308;30.374;2023-01-26T06:48:43;100682.75;;;-3.45;100.00
54407;BME280;40313;50.308;30.374;2023-01-26T06:54:04;100675.16;;;-3.42;100.00
54407;BME280;40313;50.308;30.374;2023-01-26T06:56:31;100678.56;;;-3.43;100.00
54407;BME280;40313;50.308;30.374;2023-01-26T06:58:57;100675.19;;;-3.39;100.00
54407;BME280;40313;50.308;30.374;2023-01-26T07:01:25;100674.41;;;-3.36;100.00
54407;BME280;40313;50.308;30.374;2023-01-26T07:03:53;100674.47;;;-3.32;100.00
54407;BME280;40313;50.308;30.374;2023-01-26T07:06:19;100673.69;;;-3.27;100.00
54407;BME280;40313;50.308;30.374;2023-01-26T07:08:46;100677.97;;;-3.26;100.00
54407;BME280;40313;50.308;30.374;2023-01-26T07:11:14;100676.34;;;-3.23;100.00
54407;BME280;40313;50.308;30.374;2023-01-26T07:13:41;100676.38;;;-3.21;100.00
54407;BME280;40313;50.308;30.374;2023-01-26T07:16:10;100680.69;;;-3.17;100.00
54407;BME280;40313;50.308;30.374;2023-01-26T07:18:37;100676.41;;;-3.18;100.00
54407;BME280;40313;50.308;30.374;2023-01-26T07:21:10;100676.47;;;-3.14;100.00
54407;BME280;40313;50.308;30.374;2023-01-26T07:23:36;100676.50;;;-3.12;100.00
54407;BME280;40313;50.308;30.374;2023-01-26T07:26:03;100683.38;;;-3.08;100.00
54407;BME280;40313;50.308;30.374;2023-01-26T07:28:31;100675.78;;;-3.05;100.00
54407;BME280;40313;50.308;30.374;2023-01-26T07:30:59;100675.81;;;-3.02;100.00
54407;BME280;40313;50.308;30.374;2023-01-26T07:33:26;100669.06;;;-3.00;100.00
54407;BME280;40313;50.308;30.374;2023-01-26T07:35:54;100669.91;;;-2.99;100.00
54407;BME280;40313;50.308;30.374;2023-01-26T07:38:21;100669.09;;;-2.97;100.00
54407;BME280;40313;50.308;30.374;2023-01-26T07:40:47;100669.06;;;-2.98;100.00
54407;BME280;40313;50.308;30.374;2023-01-26T07:43:14;100664.88;;;-2.93;100.00
54407;BME280;40313;50.308;30.374;2023-01-26T07:45:45;100666.59;;;-2.92;100.00
54407;BME280;40313;50.308;30.374;2023-01-26T07:48:12;100660.75;;;-2.85;100.00
54407;BME280;40313;50.308;30.374;2023-01-26T07:50:39;100664.22;;;-2.81;100.00
54407;BME280;40313;50.308;30.374;2023-01-26T07:53:06;100663.41;;;-2.79;100.00
54407;BME280;40313;50.308;30.374;2023-01-26T07:55:33;100655.81;;;-2.74;100.00
54407;BME280;40313;50.308;30.374;2023-01-26T07:58:00;100655.06;;;-2.68;100.00
54407;BME280;40313;50.308;30.374;2023-01-26T08:00:26;100655.97;;;-2.62;100.00
54407;BME280;40313;50.308;30.374;2023-01-26T08:02:54;100654.34;;;-2.56;100.00
54407;BME280;40313;50.308;30.374;2023-01-26T08:05:20;100656.16;;;-2.49;100.00
54407;BME280;40313;50.308;30.374;2023-01-26T08:07:47;100658.78;;;-2.43;100.00
54407;BME280;40313;50.308;30.374;2023-01-26T08:10:13;100656.31;;;-2.37;100.00
54407;BME280;40313;50.308;30.374;2023-01-26T08:12:39;100665.81;;;-2.28;100.00
54407;BME280;40313;50.308;30.374;2023-01-26T08:15:07;100647.97;;;-2.23;100.00
54407;BME280;40313;50.308;30.374;2023-01-26T12:56:40;100449.56;;;-0.50;100.00
54407;BME280;40313;50.308;30.374;2023-01-26T12:59:14;100445.31;;;-0.50;100.00
54407;BME280;40313;50.308;30.374;2023-01-26T13:01:43;100435.00;;;-0.55;100.00
54407;BME280;40313;50.308;30.374;2023-01-26T13:04:12;100436.72;;;-0.55;100.00
54407;BME280;40313;50.308;30.374;2023-01-26T13:06:39;100433.34;;;-0.53;100.00
54407;BME280;40313;50.308;30.374;2023-01-26T13:09:21;100421.34;;;-0.61;100.00
54407;BME280;40313;50.308;30.374;2023-01-26T13:11:51;100429.88;;;-0.62;100.00
54407;BME280;40313;50.308;30.374;2023-01-26T13:14:32;100432.44;;;-0.65;100.00
54407;BME280;40313;50.308;30.374;2023-01-26T13:19:50;100429.84;;;-0.78;100.00
54407;BME280;40313;50.308;30.374;2023-01-26T13:22:36;100431.53;;;-0.84;100.00
54407;BME280;40313;50.308;30.374;2023-01-26T13:25:11;100437.44;;;-1.01;100.00
54407;BME280;40313;50.308;30.374;2023-01-26T13:27:43;100440.84;;;-1.07;100.00
54407;BME280;40313;50.308;30.374;2023-01-26T13:32:51;100437.38;;;-1.16;100.00
54407;BME280;40313;50.308;30.374;2023-01-26T13:35:18;100432.25;;;-1.26;100.00
54407;BME280;40313;50.308;30.374;2023-01-26T13:37:48;100427.13;;;-1.26;100.00
54407;BME280;40313;50.308;30.374;2023-01-26T13:40:19;100430.50;;;-1.27;100.00
54407;BME280;40313;50.308;30.374;2023-01-26T13:42:49;100437.31;;;-1.27;100.00
54407;BME280;40313;50.308;30.374;2023-01-26T13:45:19;100433.91;;;-1.31;100.00
54407;BME280;40313;50.308;30.374;2023-01-26T13:47:50;100436.44;;;-1.34;100.00
54407;BME280;40313;50.308;30.374;2023-01-26T13:50:20;100439.00;;;-1.35;100.00
54407;BME280;40313;50.308;30.374;2023-01-26T13:52:47;100433.00;;;-1.39;100.00
54407;BME280;40313;50.308;30.374;2023-01-26T13:55:18;100430.44;;;-1.42;100.00
54407;BME280;40313;50.308;30.374;2023-01-26T13:57:46;100421.91;;;-1.44;100.00
54407;BME280;40313;50.308;30.374;2023-01-26T14:00:15;100428.69;;;-1.46;100.00
54407;BME280;40313;50.308;30.374;2023-01-26T14:02:47;100421.84;;;-1.50;100.00
54407;BME280;40313;50.308;30.374;2023-01-26T14:05:19;100427.78;;;-1.54;100.00
54407;BME280;40313;50.308;30.374;2023-01-26T14:07:46;100426.09;;;-1.59;100.00
54407;BME280;40313;50.308;30.374;2023-01-26T14:10:14;100422.66;;;-1.62;100.00
54407;BME280;40313;50.308;30.374;2023-01-26T14:12:41;100425.19;;;-1.64;100.00
54407;BME280;40313;50.308;30.374;2023-01-26T14:15:15;100418.34;;;-1.65;100.00
54407;BME280;40313;50.308;30.374;2023-01-26T14:17:47;100412.38;;;-1.67;100.00
54407;BME280;40313;50.308;30.374;2023-01-26T14:20:19;100408.09;;;-1.68;100.00
54407;BME280;40313;50.308;30.374;2023-01-26T14:23:00;100414.94;;;-1.71;100.00
54407;BME280;40313;50.308;30.374;2023-01-26T14:25:26;100409.78;;;-1.73;100.00
54407;BME280;40313;50.308;30.374;2023-01-26T14:27:53;100410.66;;;-1.72;100.00
54407;BME280;40313;50.308;30.374;2023-01-26T14:30:20;100413.19;;;-1.72;100.00
54407;BME280;40313;50.308;30.374;2023-01-26T14:32:49;100408.94;;;-1.72;100.00
54407;BME280;40313;50.308;30.374;2023-01-26T14:35:20;100413.19;;;-1.74;100.00
54407;BME280;40313;50.308;30.374;2023-01-26T14:37:47;100409.75;;;-1.78;100.00
54407;BME280;40313;50.308;30.374;2023-01-26T14:40:17;100401.22;;;-1.81;100.00
54407;BME280;40313;50.308;30.374;2023-01-26T14:42:44;100421.69;;;-1.81;100.00
54407;BME280;40313;50.308;30.374;2023-01-26T14:45:11;100406.28;;;-1.87;100.00
54407;BME280;40313;50.308;30.374;2023-01-26T14:47:38;100413.13;;;-1.83;100.00
54407;BME280;40313;50.308;30.374;2023-01-26T14:50:11;100420.78;;;-1.83;100.00
54407;BME280;40313;50.308;30.374;2023-01-26T14:52:42;100414.81;;;-1.85;100.00
54407;BME280;40313;50.308;30.374;2023-01-26T14:55:16;100411.38;;;-1.87;100.00
54407;BME280;40313;50.308;30.374;2023-01-26T14:57:43;100419.06;;;-1.87;100.00
54407;BME280;40313;50.308;30.374;2023-01-26T15:00:17;100416.50;;;-1.89;100.00
54407;BME280;40313;50.308;30.374;2023-01-26T15:02:45;100404.53;;;-1.92;100.00
54407;BME280;40313;50.308;30.374;2023-01-26T15:05:14;100406.25;;;-1.94;100.00
54407;BME280;40313;50.308;30.374;2023-01-26T15:07:42;100401.09;;;-1.97;100.00
54407;BME280;40313;50.308;30.374;2023-01-26T15:10:25;100399.38;;;-1.98;100.00
54407;BME280;40313;50.308;30.374;2023-01-26T15:12:58;100417.25;;;-2.02;100.00
54407;BME280;40313;50.308;30.374;2023-01-26T15:15:27;100409.59;;;-2.02;100.00
54407;BME280;40313;50.308;30.374;2023-01-26T15:18:01;100413.88;;;-2.01;100.00
54407;BME280;40313;50.308;30.374;2023-01-26T15:20:40;100410.44;;;-2.02;100.00
54407;BME280;40313;50.308;30.374;2023-01-26T15:23:21;100418.94;;;-2.04;100.00
54407;BME280;40313;50.308;30.374;2023-01-26T15:25:48;100412.13;;;-2.07;100.00
54407;BME280;40313;50.308;30.374;2023-01-26T15:28:17;100413.78;;;-2.09;100.00
54407;BME280;40313;50.308;30.374;2023-01-26T15:30:46;100407.84;;;-2.08;100.00
54407;BME280;40313;50.308;30.374;2023-01-26T15:33:44;100411.25;;;-2.08;100.00
54407;BME280;40313;50.308;30.374;2023-01-26T15:36:29;100410.41;;;-2.08;100.00
54407;BME280;40313;50.308;30.374;2023-01-26T15:38:57;100414.66;;;-2.07;100.00
54407;BME280;40313;50.308;30.374;2023-01-26T15:41:25;100421.44;;;-2.09;100.00
54407;BME280;40313;50.308;30.374;2023-01-26T15:43:51;100415.50;;;-2.11;100.00
54407;BME280;40313;50.308;30.374;2023-01-26T20:32:40;100363.94;;;-2.61;100.00
54407;BME280;40313;50.308;30.374;2023-01-26T20:35:07;100362.28;;;-2.57;100.00
54407;BME280;40313;50.308;30.374;2023-01-26T20:37:34;100358.88;;;-2.57;100.00
54407;BME280;40313;50.308;30.374;2023-01-26T20:40:01;100361.44;;;-2.56;100.00
54407;BME280;40313;50.308;30.374;2023-01-26T20:42:28;100357.19;;;-2.57;100.00
54407;BME280;40313;50.308;30.374;2023-01-26T20:44:54;100358.06;;;-2.53;100.00
54407;BME280;40313;50.308;30.374;2023-01-26T20:47:22;100364.03;;;-2.51;100.00
54407;BME280;40313;50.308;30.374;2023-01-26T20:49:50;100362.38;;;-2.45;100.00
54407;BME280;40313;50.308;30.374;2023-01-26T20:52:17;100368.38;;;-2.41;100.00
54407;BME280;40313;50.308;30.374;2023-01-26T20:54:43;100367.50;;;-2.43;100.00
54407;BME280;40313;50.308;30.374;2023-01-26T20:57:09;100361.56;;;-2.39;100.00
54407;BME280;40313;50.308;30.374;2023-01-26T20:59:36;100354.78;;;-2.40;100.00
54407;BME280;40313;50.308;30.374;2023-01-26T21:02:02;100348.78;;;-2.40;100.00
54407;BME280;40313;50.308;30.374;2023-01-26T21:04:29;100351.34;;;-2.39;100.00
54407;BME280;40313;50.308;30.374;2023-01-26T21:06:57;100347.94;;;-2.41;100.00
54407;BME280;40313;50.308;30.374;2023-01-26T21:09:23;100346.22;;;-2.42;100.00
54407;BME280;40313;50.308;30.374;2023-01-26T21:11:50;100341.94;;;-2.43;100.00
54407;BME280;40313;50.308;30.374;2023-01-26T21:14:16;100347.06;;;-2.43;100.00
54407;BME280;40313;50.308;30.374;2023-01-26T21:16:42;100349.63;;;-2.43;100.00
54407;BME280;40313;50.308;30.374;2023-01-26T21:19:09;100345.38;;;-2.42;100.00
54407;BME280;40313;50.308;30.374;2023-01-26T21:21:35;100336.84;;;-2.45;100.00
54407;BME280;40313;50.308;30.374;2023-01-26T21:24:03;100330.88;;;-2.45;100.00
54407;BME280;40313;50.308;30.374;2023-01-26T21:26:29;100335.16;;;-2.42;100.00
54407;BME280;40313;50.308;30.374;2023-01-26T21:28:57;100328.34;;;-2.44;100.00
54407;BME280;40313;50.308;30.374;2023-01-26T21:31:24;100336.00;;;-2.44;100.00
54407;BME280;40313;50.308;30.374;2023-01-26T21:33:51;100328.34;;;-2.44;100.00
54407;BME280;40313;50.308;30.374;2023-01-26T21:36:17;100327.50;;;-2.44;100.00
54407;BME280;40313;50.308;30.374;2023-01-26T21:38:45;100316.41;;;-2.43;100.00
54407;BME280;40313;50.308;30.374;2023-01-26T21:41:14;100314.72;;;-2.44;100.00
54407;BME280;40313;50.308;30.374;2023-01-26T21:43:54;100313.81;;;-2.46;100.00
54407;BME280;40313;50.308;30.374;2023-01-26T21:46:21;100310.44;;;-2.47;100.00
54407;BME280;40313;50.308;30.374;2023-01-26T21:48:47;100321.50;;;-2.46;100.00
54407;BME280;40313;50.308;30.374;2023-01-26T21:51:13;100314.69;;;-2.47;100.00
54407;BME280;40313;50.308;30.374;2023-01-26T21:53:57;100318.94;;;-2.46;100.00
54407;BME280;40313;50.308;30.374;2023-01-26T21:56:26;100314.72;;;-2.44;100.00
54407;BME280;40313;50.308;30.374;2023-01-26T21:58:52;100316.38;;;-2.46;100.00
54407;BME280;40313;50.308;30.374;2023-01-26T22:01:26;100319.75;;;-2.49;100.00
54407;BME280;40313;50.308;30.374;2023-01-26T22:03:53;100315.53;;;-2.48;100.00
54407;BME280;40313;50.308;30.374;2023-01-26T22:06:19;100299.28;;;-2.55;100.00
54407;BME280;40313;50.308;30.374;2023-01-26T22:08:46;100310.44;;;-2.47;100.00
54407;BME280;40313;50.308;30.374;2023-01-26T22:11:13;100316.38;;;-2.45;100.00
54407;BME280;40313;50.308;30.374;2023-01-26T22:13:40;100315.53;;;-2.47;100.00
54407;BME280;40313;50.308;30.374;2023-01-26T22:16:07;100312.97;;;-2.48;100.00
54407;BME280;40313;50.308;30.374;2023-01-26T22:18:34;100309.59;;;-2.46;100.00
54407;BME280;40313;50.308;30.374;2023-01-26T22:21:00;100299.38;;;-2.46;100.00
54407;BME280;40313;50.308;30.374;2023-01-26T22:23:29;100303.63;;;-2.45;100.00
54407;BME280;40313;50.308;30.374;2023-01-26T22:25:55;100303.63;;;-2.43;100.00
54407;BME280;40313;50.308;30.374;2023-01-26T22:28:21;100305.34;;;-2.40;100.00
54407;BME280;40313;50.308;30.374;2023-01-26T22:30:49;100302.81;;;-2.39;100.00
54407;BME280;40313;50.308;30.374;2023-01-26T22:33:15;100293.47;;;-2.37;100.00
54407;BME280;40313;50.308;30.374;2023-01-26T22:35:42;100293.47;;;-2.37;100.00
54407;BME280;40313;50.308;30.374;2023-01-26T22:38:08;100290.06;;;-2.36;100.00
54407;BME280;40313;50.308;30.374;2023-01-26T22:40:35;100291.78;;;-2.35;100.00
54407;BME280;40313;50.308;30.374;2023-01-26T22:43:02;100284.94;;;-2.36;100.00
54407;BME280;40313;50.308;30.374;2023-01-26T22:45:28;100280.72;;;-2.34;100.00
54407;BME280;40313;50.308;30.374;2023-01-26T22:47:56;100284.09;;;-2.35;100.00
